Time;durP1;ratioP1;P1;durP2;ratioP2;P2;SDS_P1;SDS_P2;PMS_P1;PMS_P2;Temp;Humidity;BMP_temperature;BMP_pressure;BME280_temperature;BME280_humidity;BME280_pressure;Samples;Min_cycle;Max_cycle;Signal;HPM_P1;HPM_P2
2022/09/29 07:13:42;;;;;;;3.93;2.10;;;10.40;99.90;;;;;;6272983;22;20269;-68
2022/09/29 07:16:12;;;;;;;3.07;1.77;;;10.40;99.90;;;;;;6244573;23;20690;-69
2022/09/29 07:18:40;;;;;;;5.30;1.90;;;10.40;99.90;;;;;;6245818;23;20215;-69
2022/09/29 07:21:09;;;;;;;7.70;2.20;;;10.40;99.90;;;;;;6245499;23;20694;-69
2022/09/29 07:23:37;;;;;;;4.20;2.07;;;10.30;99.90;;;;;;6246014;23;20233;-67
2022/09/29 07:26:04;;;;;;;4.77;2.07;;;10.30;99.90;;;;;;6245930;23;20183;-68
2022/09/29 07:28:31;;;;;;;7.47;2.10;;;10.30;99.90;;;;;;6245084;23;20180;-69
2022/09/29 07:31:02;;;;;;;5.50;2.60;;;10.30;99.90;;;;;;6246510;23;20200;-69
2022/09/29 07:33:30;;;;;;;11.50;2.00;;;10.30;99.90;;;;;;6246487;23;20179;-68
2022/09/29 07:35:59;;;;;;;3.70;1.97;;;10.40;99.90;;;;;;6246387;23;20573;-69
2022/09/29 07:38:26;;;;;;;4.47;2.43;;;10.60;99.90;;;;;;6246278;23;20526;-68
2022/09/29 07:40:53;;;;;;;4.57;3.00;;;10.80;99.90;;;;;;6246481;23;20270;-70
2022/09/29 07:43:20;;;;;;;4.17;1.87;;;11.00;99.90;;;;;;6246694;23;20182;-69
2022/09/29 07:45:48;;;;;;;3.60;1.90;;;11.30;99.90;;;;;;6246281;23;20211;-69
2022/09/29 07:48:15;;;;;;;2.70;1.70;;;11.90;99.90;;;;;;6246357;23;20179;-70
2022/09/29 07:50:44;;;;;;;4.57;2.40;;;12.50;99.90;;;;;;6246019;23;20202;-69
2022/09/29 07:53:11;;;;;;;4.53;1.60;;;13.10;99.90;;;;;;6239015;23;20519;-71
2022/09/29 07:55:38;;;;;;;3.17;1.57;;;13.50;99.90;;;;;;6244247;23;20200;-70
2022/09/29 07:58:06;;;;;;;3.57;1.60;;;14.10;99.90;;;;;;6244203;23;20186;-73
2022/09/29 08:00:33;;;;;;;4.13;1.90;;;14.70;99.90;;;;;;6243843;23;20196;-72
2022/09/29 08:03:02;;;;;;;3.37;1.77;;;15.00;99.90;;;;;;6244612;23;20736;-72
2022/09/29 08:05:28;;;;;;;3.87;2.00;;;15.10;99.90;;;;;;6244507;23;20179;-73
2022/09/29 08:07:57;;;;;;;3.70;1.80;;;15.30;99.90;;;;;;6243640;23;20715;-71
2022/09/29 08:10:26;;;;;;;3.10;1.73;;;15.40;99.90;;;;;;6244231;23;20485;-71
2022/09/29 08:12:53;;;;;;;2.90;1.70;;;15.40;99.90;;;;;;6243942;23;20218;-71
2022/09/29 08:15:20;;;;;;;4.07;1.97;;;15.40;99.90;;;;;;6243053;23;20226;-69
2022/09/29 08:17:47;;;;;;;4.57;1.67;;;15.70;99.90;;;;;;6244349;23;20202;-69
2022/09/29 08:20:14;;;;;;;4.03;2.00;;;16.20;99.90;;;;;;6244180;23;20183;-68
2022/09/29 08:22:41;;;;;;;4.93;1.87;;;16.30;99.90;;;;;;6245852;23;20289;-67
2022/09/29 08:25:09;;;;;;;4.00;1.80;;;15.90;99.90;;;;;;6245920;23;20179;-67
2022/09/29 08:27:36;;;;;;;6.50;2.37;;;15.80;99.90;;;;;;6245828;23;20175;-68
2022/09/29 08:30:04;;;;;;;4.30;1.83;;;15.60;99.90;;;;;;6245678;23;20182;-67
2022/09/29 08:32:31;;;;;;;6.67;1.87;;;15.70;99.90;;;;;;6245768;23;20180;-67
2022/09/29 08:34:58;;;;;;;4.03;2.00;;;15.70;99.90;;;;;;6245588;23;20179;-68
2022/09/29 08:37:25;;;;;;;3.73;1.97;;;15.80;99.90;;;;;;6245672;23;20290;-68
2022/09/29 08:39:51;;;;;;;3.30;1.53;;;15.70;99.90;;;;;;6245723;23;20179;-68
2022/09/29 08:42:28;;;;;;;5.30;2.77;;;15.70;99.90;;;;;;6245811;23;20202;-69
2022/09/29 08:44:59;;;;;;;3.23;1.40;;;16.00;99.90;;;;;;6245359;23;20189;-68
2022/09/29 08:47:29;;;;;;;5.20;1.80;;;16.30;99.90;;;;;;6245668;23;20184;-69
2022/09/29 08:49:59;;;;;;;2.67;1.70;;;16.60;99.90;;;;;;6245449;23;20179;-68
2022/09/29 08:52:31;;;;;;;5.07;1.80;;;16.80;99.90;;;;;;6245764;23;20179;-68
2022/09/29 08:55:05;;;;;;;3.17;1.70;;;16.80;99.90;;;;;;6245659;23;20175;-68
2022/09/29 08:57:35;;;;;;;4.10;1.70;;;16.70;99.90;;;;;;6245908;23;20207;-69
2022/09/29 09:00:03;;;;;;;5.10;1.80;;;16.70;99.90;;;;;;6245515;23;20175;-69
2022/09/29 09:03:03;;;;;;;3.13;1.60;;;16.80;99.90;;;;;;6245708;23;20183;-69
2022/09/29 09:06:07;;;;;;;3.60;1.70;;;16.60;99.90;;;;;;6245528;23;20650;-68
2022/09/29 09:08:51;;;;;;;2.50;1.40;;;16.30;99.90;;;;;;6245049;23;20635;-69
2022/09/29 09:11:36;;;;;;;3.90;1.50;;;15.80;99.90;;;;;;6245452;23;20201;-69
2022/09/29 09:14:14;;;;;;;4.30;1.83;;;15.20;99.90;;;;;;6245305;23;20237;-68
2022/09/29 09:16:52;;;;;;;2.20;1.10;;;15.00;99.90;;;;;;6245047;23;20204;-69
2022/09/29 09:19:46;;;;;;;3.27;1.67;;;14.90;99.90;;;;;;6245462;23;20189;-68
2022/09/29 09:22:22;;;;;;;4.30;2.00;;;14.90;99.90;;;;;;6217992;23;20527;-68
2022/09/29 09:25:05;;;;;;;3.60;1.50;;;14.60;99.90;;;;;;6245256;23;20203;-68
2022/09/29 09:27:37;;;;;;;4.53;1.83;;;14.50;99.90;;;;;;6245463;23;20179;-68
2022/09/29 09:30:13;;;;;;;3.17;1.10;;;14.20;99.90;;;;;;6245385;23;20186;-68
2022/09/29 09:32:46;;;;;;;2.83;1.50;;;14.20;99.90;;;;;;6245661;23;20175;-68
2022/09/29 09:35:28;;;;;;;3.13;1.47;;;14.30;99.90;;;;;;6245528;23;20199;-69
2022/09/29 09:37:59;;;;;;;1.90;1.07;;;14.30;99.90;;;;;;6245522;23;20539;-69
2022/09/29 09:40:30;;;;;;;1.60;0.90;;;14.40;99.90;;;;;;6245454;23;20227;-69
2022/09/29 09:43:03;;;;;;;1.73;1.00;;;14.50;99.90;;;;;;6245495;23;20223;-68
2022/09/29 09:45:34;;;;;;;2.27;1.20;;;14.50;99.90;;;;;;6245545;23;20254;-69
2022/09/29 09:48:10;;;;;;;3.10;1.37;;;14.50;99.90;;;;;;6245767;23;20186;-69
2022/09/29 09:50:41;;;;;;;2.97;1.20;;;14.60;99.90;;;;;;6245838;23;20198;-67
2022/09/29 09:53:15;;;;;;;2.40;1.07;;;14.90;99.90;;;;;;6245660;23;20175;-68
2022/09/29 09:55:42;;;;;;;2.13;1.13;;;15.00;99.90;;;;;;6245525;23;20184;-69
2022/09/29 09:58:43;;;;;;;3.67;1.47;;;14.80;99.90;;;;;;6245150;23;20179;-67
2022/09/29 10:01:11;;;;;;;2.60;1.17;;;14.60;99.90;;;;;;6212158;23;20195;-68
2022/09/29 10:03:38;;;;;;;4.20;1.10;;;14.70;99.90;;;;;;6246980;23;20636;-69
2022/09/29 10:06:08;;;;;;;1.77;1.00;;;14.80;99.90;;;;;;6247526;23;20508;-68
2022/09/29 10:08:39;;;;;;;1.60;0.90;;;14.70;99.90;;;;;;6247197;23;20624;-68
2022/09/29 10:11:21;;;;;;;2.57;1.10;;;14.60;99.90;;;;;;6247070;23;20668;-69
2022/09/29 10:13:50;;;;;;;2.03;1.00;;;14.50;99.90;;;;;;6247157;23;20184;-68
2022/09/29 10:16:22;;;;;;;1.90;1.23;;;14.70;99.90;;;;;;6246874;23;20421;-68
2022/09/29 10:18:51;;;;;;;4.13;1.50;;;14.70;99.90;;;;;;6247175;23;20192;-68
2022/09/29 10:21:23;;;;;;;1.53;1.03;;;14.80;99.90;;;;;;6247188;23;20200;-68
2022/09/29 10:23:53;;;;;;;0.90;0.77;;;14.80;99.90;;;;;;6247366;23;20179;-70
2022/09/29 10:26:24;;;;;;;1.70;1.07;;;14.90;99.90;;;;;;6247289;23;20259;-68
2022/09/29 10:28:53;;;;;;;1.90;1.00;;;15.00;99.90;;;;;;6247077;23;20193;-68
2022/09/29 10:31:26;;;;;;;3.03;1.20;;;15.20;99.90;;;;;;6246669;23;20204;-68
2022/09/29 10:33:57;;;;;;;1.63;1.00;;;15.30;99.90;;;;;;6247169;23;20238;-69
2022/09/29 10:36:26;;;;;;;2.20;0.90;;;15.20;99.90;;;;;;6246941;23;20207;-68
2022/09/29 10:38:55;;;;;;;1.53;0.90;;;15.20;99.90;;;;;;6247344;23;20182;-69
2022/09/29 10:41:22;;;;;;;1.97;0.80;;;15.10;99.90;;;;;;6246738;23;20199;-68
2022/09/29 10:43:51;;;;;;;2.13;0.90;;;15.20;99.90;;;;;;6246575;23;20551;-69
2022/09/29 10:46:47;;;;;;;2.23;0.90;;;15.30;99.90;;;;;;6246140;23;20710;-68
2022/09/29 10:49:16;;;;;;;2.07;0.80;;;15.30;99.90;;;;;;6247115;23;20175;-67
2022/09/29 10:51:54;;;;;;;1.30;0.80;;;15.30;99.90;;;;;;6246783;23;20200;-69
2022/09/29 10:54:24;;;;;;;1.10;0.80;;;15.30;99.90;;;;;;6247008;23;20183;-68
2022/09/29 10:56:52;;;;;;;1.70;0.90;;;15.50;99.90;;;;;;6246744;23;20265;-67
2022/09/29 10:59:19;;;;;;;3.40;1.07;;;15.50;99.90;;;;;;6246855;23;20182;-69
2022/09/29 11:01:50;;;;;;;1.97;1.00;;;15.40;99.90;;;;;;6246636;23;20203;-68
2022/09/29 11:04:22;;;;;;;2.63;0.70;;;15.60;99.90;;;;;;6247156;23;20278;-67
2022/09/29 11:06:50;;;;;;;2.23;0.90;;;15.80;99.90;;;;;;6246674;23;20640;-67
2022/09/29 11:09:35;;;;;;;2.77;1.10;;;15.80;99.90;;;;;;6246538;23;20179;-68
2022/09/29 11:12:02;;;;;;;0.83;0.70;;;16.00;99.90;;;;;;6246361;23;20206;-69
2022/09/29 11:14:31;;;;;;;2.10;1.00;;;16.00;99.90;;;;;;6246467;23;20214;-68
2022/09/29 11:17:01;;;;;;;2.00;0.90;;;16.40;99.90;;;;;;6246303;23;20207;-67
2022/09/29 11:19:30;;;;;;;1.27;0.80;;;16.70;99.90;;;;;;6246545;23;20612;-68
2022/09/29 11:22:41;;;;;;;2.50;1.00;;;17.10;99.90;;;;;;6246648;23;20196;-67
2022/09/29 11:25:34;;;;;;;1.37;0.80;;;17.40;99.90;;;;;;6245960;23;20508;-69
2022/09/29 11:28:25;;;;;;;3.03;0.90;;;17.50;99.90;;;;;;6245930;23;20190;-67
2022/09/29 11:31:08;;;;;;;2.80;1.33;;;17.40;99.90;;;;;;6246854;23;20206;-67
2022/09/29 11:33:45;;;;;;;3.80;1.00;;;17.20;99.90;;;;;;6246005;23;20249;-69
2022/09/29 11:36:25;;;;;;;1.10;0.90;;;17.20;99.90;;;;;;6246719;23;20234;-67
2022/09/29 11:39:10;;;;;;;1.37;0.90;;;17.20;99.90;;;;;;6246818;23;20183;-69
2022/09/29 11:41:49;;;;;;;2.40;1.33;;;17.20;99.90;;;;;;6246631;23;20200;-67
2022/09/29 11:44:46;;;;;;;1.60;0.83;;;17.10;99.90;;;;;;6246200;23;20500;-67
2022/09/29 11:47:25;;;;;;;2.40;0.93;;;17.10;99.90;;;;;;6241175;23;20266;-66
2022/09/29 11:50:03;;;;;;;2.20;0.80;;;16.80;99.90;;;;;;6246706;23;20266;-67
2022/09/29 11:52:50;;;;;;;1.47;0.80;;;16.70;99.90;;;;;;6246087;23;20179;-68
2022/09/29 11:55:29;;;;;;;1.10;0.80;;;16.50;99.90;;;;;;6246583;23;20207;-67
2022/09/29 11:58:09;;;;;;;1.90;1.00;;;16.30;99.90;;;;;;6245947;23;20289;-68
2022/09/29 12:00:51;;;;;;;0.83;0.67;;;16.20;99.90;;;;;;6246065;23;20196;-67
2022/09/29 12:03:32;;;;;;;2.40;0.90;;;16.30;99.90;;;;;;6246442;23;20175;-70
2022/09/29 12:06:18;;;;;;;1.30;0.70;;;16.30;99.90;;;;;;6246231;23;20175;-69
2022/09/29 12:08:59;;;;;;;2.00;1.10;;;16.70;99.90;;;;;;6246030;23;20658;-69
2022/09/29 12:11:35;;;;;;;1.23;0.80;;;16.70;99.90;;;;;;6245860;23;20227;-67
2022/09/29 12:14:11;;;;;;;2.70;1.20;;;16.70;99.90;;;;;;6246202;23;20194;-69
2022/09/29 12:16:45;;;;;;;2.93;1.00;;;16.80;99.90;;;;;;6246198;23;20210;-68
2022/09/29 12:19:15;;;;;;;2.43;0.83;;;16.10;99.90;;;;;;6246356;23;20176;-68
2022/09/29 12:21:49;;;;;;;3.43;0.87;;;16.20;99.90;;;;;;6245737;23;20254;-68
2022/09/29 12:24:19;;;;;;;1.03;0.70;;;16.40;99.90;;;;;;6245787;23;20485;-67
2022/09/29 12:26:49;;;;;;;0.73;0.50;;;16.50;99.90;;;;;;6245345;23;20180;-67
2022/09/29 12:29:33;;;;;;;1.30;0.90;;;16.60;99.90;;;;;;6245850;23;20176;-67
2022/09/29 12:32:08;;;;;;;0.70;0.60;;;16.60;99.90;;;;;;6246091;23;20195;-67
2022/09/29 12:34:41;;;;;;;1.27;0.67;;;16.30;99.90;;;;;;6246075;23;20183;-66
2022/09/29 12:37:16;;;;;;;1.63;0.67;;;16.40;99.90;;;;;;6245942;23;20207;-67
2022/09/29 12:39:50;;;;;;;1.17;0.70;;;16.40;99.90;;;;;;6245846;23;20649;-67
2022/09/29 12:42:26;;;;;;;1.23;0.70;;;16.40;99.90;;;;;;6245470;23;20195;-69
2022/09/29 12:45:01;;;;;;;1.23;0.60;;;15.80;99.90;;;;;;6245466;23;20175;-67
2022/09/29 12:47:39;;;;;;;1.23;0.53;;;15.70;99.90;;;;;;6245893;23;20179;-68
2022/09/29 12:50:14;;;;;;;0.70;0.50;;;15.80;99.90;;;;;;6245685;23;20175;-67
2022/09/29 12:52:50;;;;;;;1.07;0.60;;;15.70;99.90;;;;;;6245725;23;20180;-67
2022/09/29 12:55:24;;;;;;;1.80;0.50;;;15.90;99.90;;;;;;6245429;23;20714;-67
2022/09/29 12:57:56;;;;;;;0.97;0.50;;;16.10;99.90;;;;;;6245801;23;20250;-67
2022/09/29 13:00:24;;;;;;;2.10;0.50;;;16.00;99.90;;;;;;6245786;23;20227;-67
2022/09/29 13:03:33;;;;;;;1.93;0.60;;;16.20;99.90;;;;;;6245988;23;20182;-67
2022/09/29 13:06:49;;;;;;;1.27;0.40;;;16.20;99.90;;;;;;6243627;23;20654;-67
2022/09/29 13:09:43;;;;;;;0.70;0.50;;;16.10;99.90;;;;;;6245881;23;20175;-68
2022/09/29 13:12:30;;;;;;;0.80;0.50;;;16.20;99.90;;;;;;6245892;23;20689;-67
2022/09/29 13:15:23;;;;;;;0.90;0.43;;;16.20;99.90;;;;;;6245366;23;20318;-69
2022/09/29 13:18:06;;;;;;;4.00;0.80;;;16.20;99.90;;;;;;6245646;23;20211;-68
2022/09/29 13:20:55;;;;;;;1.20;0.67;;;16.10;99.90;;;;;;6245331;23;20282;-68
2022/09/29 13:23:54;;;;;;;1.00;0.60;;;16.20;99.90;;;;;;6245774;23;20181;-69
2022/09/29 13:26:36;;;;;;;0.40;0.40;;;16.30;99.90;;;;;;6220088;23;20186;-67
2022/09/29 13:29:10;;;;;;;2.30;0.70;;;16.50;99.90;;;;;;6245908;23;20179;-67
2022/09/29 13:31:39;;;;;;;1.43;0.50;;;16.40;99.90;;;;;;6245614;23;20278;-68
2022/09/29 13:34:07;;;;;;;2.20;0.60;;;16.60;99.90;;;;;;6245829;23;20234;-67
2022/09/29 13:36:38;;;;;;;0.93;0.47;;;16.40;99.90;;;;;;6246875;23;20179;-67
2022/09/29 13:39:07;;;;;;;1.40;0.50;;;16.60;99.90;;;;;;6247875;23;20186;-68
2022/09/29 13:41:39;;;;;;;1.48;0.70;;;17.00;99.90;;;;;;6247034;23;20474;-70
2022/09/29 13:44:21;;;;;;;0.70;0.40;;;17.10;99.90;;;;;;6247691;23;20179;-68
2022/09/29 13:46:48;;;;;;;3.13;0.93;;;17.40;99.90;;;;;;6247250;23;20702;-67
2022/09/29 13:49:24;;;;;;;1.98;0.60;;;17.60;99.90;;;;;;6247638;23;20565;-67
2022/09/29 13:51:52;;;;;;;1.20;0.43;;;17.80;99.90;;;;;;6247566;23;20203;-67
2022/09/29 13:54:40;;;;;;;1.10;0.60;;;17.90;99.90;;;;;;6247179;23;20507;-67
2022/09/29 13:57:30;;;;;;;0.80;0.50;;;17.60;99.90;;;;;;6247530;23;20199;-69
2022/09/29 14:00:24;;;;;;;1.10;0.90;;;17.60;99.90;;;;;;6241701;23;20179;-67
2022/09/29 14:03:20;;;;;;;0.40;0.40;;;17.70;99.90;;;;;;6246031;23;20179;-69
2022/09/29 14:05:53;;;;;;;1.07;0.60;;;17.90;99.90;;;;;;6245603;23;20180;-67
2022/09/29 14:08:27;;;;;;;2.33;0.60;;;18.10;99.90;;;;;;6245833;23;20182;-67
2022/09/29 14:11:04;;;;;;;1.53;0.93;;;17.90;99.90;;;;;;6245352;23;20680;-70
2022/09/29 14:13:41;;;;;;;1.30;0.67;;;17.90;99.90;;;;;;6245271;23;20189;-67
2022/09/29 14:16:22;;;;;;;2.23;0.53;;;17.70;99.90;;;;;;6245481;23;20504;-66
2022/09/29 14:18:55;;;;;;;0.90;0.60;;;17.40;99.90;;;;;;6245570;23;20285;-68
2022/09/29 14:21:45;;;;;;;6.53;0.40;;;17.50;99.90;;;;;;6245063;23;20207;-67
2022/09/29 14:24:48;;;;;;;0.63;0.50;;;17.70;99.90;;;;;;6246459;23;20175;-66
2022/09/29 14:27:26;;;;;;;1.23;0.60;;;17.50;99.90;;;;;;6247113;23;20639;-65
2022/09/29 14:30:01;;;;;;;2.40;0.47;;;17.70;99.90;;;;;;6247260;23;20198;-66
2022/09/29 14:32:39;;;;;;;0.65;0.40;;;17.80;99.90;;;;;;6247019;23;20261;-65
2022/09/29 14:35:16;;;;;;;0.98;0.45;;;17.80;99.90;;;;;;6247261;23;20179;-66
2022/09/29 14:37:44;;;;;;;1.40;0.40;;;17.90;99.90;;;;;;6246551;23;20767;-68
2022/09/29 14:40:28;;;;;;;0.70;0.55;;;17.70;99.90;;;;;;6246745;23;20175;-66
2022/09/29 14:43:06;;;;;;;3.35;0.73;;;17.70;99.90;;;;;;6246857;23;20262;-65
2022/09/29 14:54:28;;;;;;;1.80;0.50;;;18.00;99.90;;;;;;6246906;23;20197;-65
2022/09/29 14:57:06;;;;;;;1.25;0.57;;;18.10;99.90;;;;;;6247331;23;20461;-65
2022/09/29 14:59:46;;;;;;;1.02;0.50;;;18.20;99.90;;;;;;6246477;23;20183;-66
2022/09/29 15:02:25;;;;;;;0.93;0.32;;;18.40;99.90;;;;;;6246136;23;20201;-66
2022/09/29 15:04:52;;;;;;;2.13;0.43;;;18.50;99.90;;;;;;6246293;23;20548;-65
2022/09/29 15:07:22;;;;;;;2.03;0.60;;;18.50;99.90;;;;;;6246531;23;20254;-65
2022/09/29 15:09:51;;;;;;;0.52;0.50;;;18.40;99.90;;;;;;6246931;23;20179;-66
2022/09/29 15:12:25;;;;;;;0.65;0.30;;;18.40;99.90;;;;;;6246499;23;20274;-67
2022/09/29 15:14:52;;;;;;;0.63;0.40;;;18.30;99.90;;;;;;6245587;23;20187;-65
2022/09/29 15:17:32;;;;;;;0.60;0.30;;;18.30;99.90;;;;;;6246228;23;20191;-65
2022/09/29 15:20:07;;;;;;;0.60;0.40;;;18.20;99.90;;;;;;6246634;23;20181;-68
2022/09/29 15:23:12;;;;;;;1.00;0.50;;;18.10;99.90;;;;;;6246763;23;20179;-66
2022/09/29 15:25:41;;;;;;;0.60;0.43;;;18.20;99.90;;;;;;6220226;23;20175;-66
2022/09/29 15:28:15;;;;;;;0.73;0.43;;;18.30;99.90;;;;;;6246360;23;20180;-67
2022/09/29 15:30:42;;;;;;;1.10;0.40;;;18.20;99.90;;;;;;6246369;23;20302;-69
2022/09/29 15:33:18;;;;;;;3.95;0.43;;;18.00;99.90;;;;;;6246325;23;20628;-66
2022/09/29 15:35:49;;;;;;;1.45;0.50;;;18.00;99.90;;;;;;6246752;23;20179;-65
2022/09/29 15:38:31;;;;;;;2.60;0.52;;;17.90;99.90;;;;;;6246001;23;20204;-69
2022/09/29 15:41:01;;;;;;;0.52;0.40;;;17.90;99.90;;;;;;6246189;23;20222;-67
2022/09/29 15:43:32;;;;;;;0.75;0.40;;;17.80;99.90;;;;;;6246297;23;20179;-65
2022/09/29 15:46:01;;;;;;;0.43;0.40;;;17.90;99.90;;;;;;6246032;23;20234;-66
2022/09/29 15:48:31;;;;;;;1.40;0.50;;;17.80;99.90;;;;;;6246545;23;20211;-66
2022/09/29 15:51:00;;;;;;;3.33;0.47;;;17.80;99.90;;;;;;6246634;23;20199;-65
2022/09/29 15:53:28;;;;;;;1.88;0.68;;;17.40;99.90;;;;;;6246052;23;20258;-65
2022/09/29 15:55:55;;;;;;;0.73;0.50;;;17.30;99.90;;;;;;6245910;23;20505;-65
2022/09/29 15:58:46;;;;;;;0.93;0.70;;;17.20;99.90;;;;;;6246096;23;20214;-68
2022/09/29 16:01:17;;;;;;;2.55;0.80;;;17.10;99.90;;;;;;6246322;23;20249;-65
2022/09/29 16:03:50;;;;;;;1.77;0.63;;;16.90;99.90;;;;;;6246243;23;20186;-67
2022/09/29 16:06:27;;;;;;;1.30;0.80;;;16.70;99.90;;;;;;6246251;23;20179;-68
2022/09/29 16:08:58;;;;;;;1.10;0.73;;;16.50;99.90;;;;;;6245936;23;20508;-66
2022/09/29 16:11:27;;;;;;;2.37;0.80;;;16.50;99.90;;;;;;6246127;23;20204;-68
2022/09/29 16:13:59;;;;;;;2.20;0.90;;;16.30;99.90;;;;;;6245825;23;20183;-67
2022/09/29 16:16:30;;;;;;;1.50;0.80;;;16.40;99.90;;;;;;6245869;23;20175;-68
2022/09/29 16:19:03;;;;;;;1.60;0.60;;;16.30;99.90;;;;;;6246247;23;20207;-65
2022/09/29 16:21:35;;;;;;;1.20;0.60;;;16.10;99.90;;;;;;6246070;23;20195;-67
2022/09/29 16:24:08;;;;;;;1.03;0.70;;;16.20;99.90;;;;;;6245967;23;20179;-68
2022/09/29 16:26:36;;;;;;;1.20;0.80;;;16.30;99.90;;;;;;6246088;23;20183;-67
2022/09/29 16:29:28;;;;;;;1.20;0.87;;;16.30;99.90;;;;;;6246230;23;20275;-69
2022/09/29 16:31:56;;;;;;;4.27;2.10;;;16.30;99.90;;;;;;6236389;23;20199;-65
2022/09/29 16:34:34;;;;;;;5.33;2.93;;;16.20;99.90;;;;;;6244931;23;20263;-70
2022/09/29 16:37:03;;;;;;;2.13;1.20;;;16.20;99.90;;;;;;6245188;23;20187;-67
2022/09/29 16:39:32;;;;;;;3.80;1.33;;;16.00;99.90;;;;;;6243553;23;20207;-64
2022/09/29 16:42:04;;;;;;;3.40;1.27;;;15.70;99.90;;;;;;6243893;23;20195;-70
2022/09/29 16:44:33;;;;;;;1.93;1.27;;;15.60;99.90;;;;;;6245068;23;20266;-65
2022/09/29 16:47:03;;;;;;;2.83;1.50;;;15.50;99.90;;;;;;6244546;23;20176;-64
2022/09/29 16:49:33;;;;;;;2.40;1.37;;;15.30;99.90;;;;;;6245265;23;20183;-66
2022/09/29 16:52:11;;;;;;;2.17;1.30;;;15.20;99.90;;;;;;6245501;23;20278;-66
2022/09/29 16:54:42;;;;;;;1.83;1.13;;;15.10;99.90;;;;;;6245006;23;20294;-65
2022/09/29 16:57:25;;;;;;;2.70;1.37;;;15.10;99.90;;;;;;6245511;23;20175;-65
2022/09/29 16:59:54;;;;;;;3.10;1.23;;;15.00;99.90;;;;;;6245267;23;20234;-65
2022/09/29 17:02:22;;;;;;;1.37;0.93;;;14.80;99.90;;;;;;6244045;23;20302;-66
2022/09/29 17:04:49;;;;;;;1.80;1.00;;;14.70;99.90;;;;;;6244707;23;20266;-65
2022/09/29 17:07:19;;;;;;;2.73;1.33;;;14.60;99.90;;;;;;6245379;23;20180;-65
2022/09/29 17:09:49;;;;;;;2.53;1.23;;;14.40;99.90;;;;;;6245811;23;20187;-65
2022/09/29 17:12:17;;;;;;;1.70;0.97;;;14.20;99.90;;;;;;6243359;23;20199;-68
2022/09/29 17:14:47;;;;;;;2.03;1.20;;;14.20;99.90;;;;;;6245781;23;20184;-66
2022/09/29 17:17:18;;;;;;;2.23;1.37;;;14.20;99.90;;;;;;6247038;23;20505;-67
2022/09/29 17:19:45;;;;;;;2.50;1.10;;;14.00;99.90;;;;;;6246644;23;20213;-66
2022/09/29 17:22:32;;;;;;;3.70;1.30;;;13.80;99.90;;;;;;6246861;23;20201;-66
2022/09/29 17:24:59;;;;;;;3.57;1.43;;;13.70;99.90;;;;;;6246871;23;20211;-68
2022/09/29 17:30:16;;;;;;;3.47;1.40;;;13.50;99.90;;;;;;6246766;23;20635;-70
2022/09/29 17:32:45;;;;;;;3.53;1.40;;;13.30;99.90;;;;;;6246895;23;20536;-73
2022/09/29 17:35:13;;;;;;;3.97;1.40;;;13.10;99.90;;;;;;6246870;23;20543;-66
2022/09/29 17:37:42;;;;;;;3.40;1.50;;;12.90;99.90;;;;;;6246934;23;20187;-67
2022/09/29 17:40:19;;;;;;;2.47;1.10;;;12.80;99.90;;;;;;6246435;23;20208;-68
2022/09/29 17:42:46;;;;;;;3.47;1.17;;;12.70;99.90;;;;;;6246508;23;20234;-66
2022/09/29 17:45:14;;;;;;;1.53;1.00;;;12.60;99.90;;;;;;6246340;23;20183;-68
2022/09/29 17:47:41;;;;;;;2.67;1.10;;;12.60;99.90;;;;;;6246863;23;20640;-68
2022/09/29 17:50:22;;;;;;;3.33;1.47;;;12.50;99.90;;;;;;6247070;23;20176;-66
2022/09/29 17:52:50;;;;;;;2.43;1.43;;;12.50;99.90;;;;;;6247124;23;20182;-72
2022/09/29 17:55:17;;;;;;;1.93;1.33;;;12.40;99.90;;;;;;6247369;23;20182;-66
2022/09/29 17:57:46;;;;;;;3.67;1.73;;;12.40;99.90;;;;;;6246799;23;20559;-66
2022/09/29 18:00:18;;;;;;;4.73;2.33;;;12.30;99.90;;;;;;6246481;23;20204;-66
2022/09/29 18:02:45;;;;;;;3.93;1.60;;;12.20;99.90;;;;;;6246885;23;20179;-71
2022/09/29 18:05:11;;;;;;;3.03;1.53;;;12.20;99.90;;;;;;6247139;23;20233;-69
2022/09/29 18:07:38;;;;;;;2.43;1.60;;;12.10;99.90;;;;;;6247226;23;20198;-67
2022/09/29 18:10:18;;;;;;;4.03;1.53;;;12.00;99.90;;;;;;6246773;23;20184;-69
2022/09/29 18:12:45;;;;;;;2.37;1.40;;;12.00;99.90;;;;;;6246140;23;20190;-69
2022/09/29 18:15:12;;;;;;;5.00;1.80;;;12.00;99.90;;;;;;6245475;23;20187;-64
2022/09/29 18:17:39;;;;;;;1.83;1.37;;;11.90;99.90;;;;;;6246255;23;20254;-71
2022/09/29 18:20:14;;;;;;;4.70;1.30;;;11.80;99.90;;;;;;6246281;23;20217;-69
2022/09/29 18:22:42;;;;;;;3.27;1.20;;;11.70;99.90;;;;;;6246221;23;20175;-66
2022/09/29 18:25:09;;;;;;;2.80;1.63;;;11.70;99.90;;;;;;6242291;23;20211;-65
2022/09/29 18:27:38;;;;;;;4.43;1.70;;;11.70;99.90;;;;;;6245292;23;20180;-65
2022/09/29 18:30:10;;;;;;;3.13;2.10;;;11.70;99.90;;;;;;6245443;23;20183;-70
2022/09/29 18:32:37;;;;;;;3.17;2.20;;;11.70;99.90;;;;;;6245906;23;20182;-69
2022/09/29 18:35:10;;;;;;;6.37;3.60;;;11.70;99.90;;;;;;6245698;23;20182;-66
2022/09/29 18:37:36;;;;;;;4.80;2.90;;;11.70;99.90;;;;;;6245580;23;20263;-69
2022/09/29 18:40:04;;;;;;;7.10;2.80;;;11.70;99.90;;;;;;6245142;23;20207;-70
2022/09/29 18:42:30;;;;;;;4.70;2.37;;;11.60;99.90;;;;;;6245396;23;20254;-67
2022/09/29 18:44:58;;;;;;;5.23;2.90;;;11.60;99.90;;;;;;6244999;23;20179;-67
2022/09/29 18:47:26;;;;;;;5.27;2.70;;;11.70;99.90;;;;;;6245432;23;20399;-69
2022/09/29 18:49:52;;;;;;;8.57;3.40;;;11.70;99.90;;;;;;6244934;23;20179;-65
2022/09/29 18:52:19;;;;;;;9.13;3.37;;;11.80;99.90;;;;;;6245481;23;20196;-68
2022/09/29 18:54:46;;;;;;;6.80;3.53;;;11.70;99.90;;;;;;6245293;23;20504;-66
2022/09/29 18:57:13;;;;;;;7.80;3.80;;;11.60;99.90;;;;;;6245405;23;20624;-66
2022/09/29 18:59:41;;;;;;;6.83;3.63;;;11.60;99.90;;;;;;6245531;23;20213;-68
2022/09/29 19:02:13;;;;;;;8.10;4.00;;;11.60;99.90;;;;;;6245399;23;20265;-67
2022/09/29 19:04:40;;;;;;;9.43;3.60;;;11.60;99.90;;;;;;6245152;23;20561;-65
2022/09/29 19:07:11;;;;;;;8.20;4.03;;;11.70;99.90;;;;;;6246063;23;20198;-68
2022/09/29 19:09:38;;;;;;;8.80;4.70;;;11.60;99.90;;;;;;6245737;23;20225;-66
2022/09/29 19:12:05;;;;;;;8.47;4.67;;;11.50;99.90;;;;;;6245025;23;20196;-66
2022/09/29 19:14:32;;;;;;;11.50;4.90;;;11.50;99.90;;;;;;6245271;23;20187;-66
2022/09/29 19:16:59;;;;;;;8.00;4.93;;;11.40;99.90;;;;;;6246359;23;20187;-65
2022/09/29 19:19:27;;;;;;;10.13;5.23;;;11.40;99.90;;;;;;6245646;23;20208;-68
2022/09/29 19:21:54;;;;;;;11.50;5.30;;;11.30;99.90;;;;;;6245544;23;20200;-65
2022/09/29 19:24:22;;;;;;;9.60;5.33;;;11.20;99.90;;;;;;6245509;23;20175;-69
2022/09/29 19:26:49;;;;;;;10.00;4.57;;;11.20;99.90;;;;;;6244704;23;20180;-66
2022/09/29 19:29:16;;;;;;;12.17;5.60;;;11.10;99.90;;;;;;6244940;23;20186;-66
2022/09/29 19:31:43;;;;;;;14.30;6.13;;;11.10;99.90;;;;;;6245110;23;20200;-69
2022/09/29 19:34:10;;;;;;;13.80;6.60;;;11.00;99.90;;;;;;6245300;23;20175;-68
2022/09/29 19:36:38;;;;;;;11.47;5.30;;;10.90;99.90;;;;;;6245422;23;20541;-66
2022/09/29 19:39:06;;;;;;;14.50;6.13;;;10.90;99.90;;;;;;6245097;23;20204;-71
2022/09/29 19:41:33;;;;;;;13.10;5.77;;;10.90;99.90;;;;;;6244912;23;20196;-66
2022/09/29 19:44:00;;;;;;;12.03;5.87;;;10.80;99.90;;;;;;6244981;23;20274;-68
2022/09/29 19:46:27;;;;;;;10.93;5.90;;;10.70;99.90;;;;;;6244818;23;20176;-66
2022/09/29 19:48:54;;;;;;;13.40;5.70;;;10.70;99.90;;;;;;6243509;23;20274;-67
2022/09/29 19:54:12;;;;;;;12.80;5.80;;;10.70;99.90;;;;;;6245277;23;20548;-68
2022/09/29 19:56:39;;;;;;;10.40;4.87;;;10.60;99.90;;;;;;6245288;23;20182;-66
2022/09/29 19:59:06;;;;;;;13.63;5.80;;;10.60;99.90;;;;;;6244600;23;20204;-68
2022/09/29 20:01:33;;;;;;;12.20;6.27;;;10.60;99.90;;;;;;6244393;23;20295;-67
2022/09/29 20:04:01;;;;;;;12.57;5.83;;;10.50;99.90;;;;;;6244480;23;20180;-66
2022/09/29 20:06:28;;;;;;;11.27;5.60;;;10.50;99.90;;;;;;6244536;23;20176;-71
2022/09/29 20:08:54;;;;;;;13.00;6.40;;;10.40;99.90;;;;;;6243702;23;20658;-71
2022/09/29 20:11:23;;;;;;;13.20;5.87;;;10.30;99.90;;;;;;6243974;23;20278;-65
2022/09/29 20:13:49;;;;;;;12.37;6.37;;;10.30;99.90;;;;;;6244422;23;20199;-69
2022/09/29 20:16:16;;;;;;;13.27;7.10;;;10.20;99.90;;;;;;6244575;23;20175;-69
2022/09/29 20:18:43;;;;;;;14.37;7.23;;;10.20;99.90;;;;;;6244640;23;20186;-67
2022/09/29 20:21:12;;;;;;;12.40;5.80;;;10.10;99.90;;;;;;6244821;23;20265;-70
2022/09/29 20:23:39;;;;;;;10.30;5.57;;;10.10;99.90;;;;;;6244687;23;20184;-71
2022/09/29 20:26:07;;;;;;;14.10;6.00;;;10.10;99.90;;;;;;6244979;23;20233;-68
2022/09/29 20:28:36;;;;;;;12.20;6.20;;;10.10;99.90;;;;;;6244727;23;20512;-69
2022/09/29 20:31:06;;;;;;;9.93;5.13;;;10.10;99.90;;;;;;6244108;23;20210;-71
2022/09/29 20:33:33;;;;;;;12.70;6.00;;;10.10;99.90;;;;;;6244617;23;20183;-70
2022/09/29 20:36:02;;;;;;;10.47;5.20;;;10.00;99.90;;;;;;6244016;23;20624;-65
2022/09/29 20:38:29;;;;;;;9.50;4.90;;;10.00;99.90;;;;;;6244622;23;20504;-68
2022/09/29 20:41:00;;;;;;;8.03;4.50;;;9.90;99.90;;;;;;6244077;23;20211;-70
2022/09/29 20:43:27;;;;;;;9.40;4.33;;;9.90;99.90;;;;;;6244054;23;20183;-64